sensor_id;sensor_type;location;lat;lon;timestamp;pressure;altitude;pressure_sealevel;temperature;humidity
29239;BME280;16267;48.194;11.546;2022-12-11T00:01:22;95112.50;;;0.25;90.41
29239;BME280;16267;48.194;11.546;2022-12-11T00:03:48;95106.47;;;0.24;90.03
29239;BME280;16267;48.194;11.546;2022-12-11T00:06:19;95108.00;;;0.25;89.78
29239;BME280;16267;48.194;11.546;2022-12-11T00:08:45;95113.22;;;0.21;89.21
29239;BME280;16267;48.194;11.546;2022-12-11T00:11:14;95111.28;;;0.18;89.01
29239;BME280;16267;48.194;11.546;2022-12-11T00:13:41;95109.03;;;0.17;88.75
29239;BME280;16267;48.194;11.546;2022-12-11T00:16:08;95108.66;;;0.18;88.96
29239;BME280;16267;48.194;11.546;2022-12-11T00:18:34;95110.13;;;0.16;88.68
29239;BME280;16267;48.194;11.546;2022-12-11T00:21:02;95104.84;;;0.16;88.88
29239;BME280;16267;48.194;11.546;2022-12-11T00:23:28;95101.78;;;0.14;88.21
29239;BME280;16267;48.194;11.546;2022-12-11T00:25:53;95107.78;;;0.11;88.58
29239;BME280;16267;48.194;11.546;2022-12-11T00:28:19;95104.03;;;0.12;89.39
29239;BME280;16267;48.194;11.546;2022-12-11T00:30:45;95109.31;;;0.12;89.37
29239;BME280;16267;48.194;11.546;2022-12-11T00:33:13;95108.91;;;0.10;88.45
29239;BME280;16267;48.194;11.546;2022-12-11T00:35:46;95109.22;;;0.08;89.14
29239;BME280;16267;48.194;11.546;2022-12-11T00:38:18;95113.06;;;0.11;89.49
29239;BME280;16267;48.194;11.546;2022-12-11T00:40:45;95117.56;;;0.10;89.18
29239;BME280;16267;48.194;11.546;2022-12-11T00:43:11;95113.41;;;0.09;88.75
29239;BME280;16267;48.194;11.546;2022-12-11T00:45:41;95116.81;;;0.10;88.94
29239;BME280;16267;48.194;11.546;2022-12-11T00:48:07;95112.66;;;0.09;88.23
29239;BME280;16267;48.194;11.546;2022-12-11T00:50:33;95108.09;;;0.06;87.57
29239;BME280;16267;48.194;11.546;2022-12-11T00:53:00;95112.59;;;0.05;87.66
29239;BME280;16267;48.194;11.546;2022-12-11T00:55:26;95123.09;;;0.02;87.18
29239;BME280;16267;48.194;11.546;2022-12-11T00:57:54;95115.88;;;-0.02;88.06
29239;BME280;16267;48.194;11.546;2022-12-11T01:00:21;95114.38;;;-0.03;87.82
29239;BME280;16267;48.194;11.546;2022-12-11T01:02:48;95106.78;;;-0.04;88.09
29239;BME280;16267;48.194;11.546;2022-12-11T01:05:14;95108.31;;;-0.03;88.64
29239;BME280;16267;48.194;11.546;2022-12-11T01:07:41;95110.59;;;-0.02;88.75
29239;BME280;16267;48.194;11.546;2022-12-11T01:10:07;95122.19;;;-0.06;87.28
29239;BME280;16267;48.194;11.546;2022-12-11T01:13:04;95132.00;;;-0.07;87.88
29239;BME280;16267;48.194;11.546;2022-12-11T01:15:43;95125.22;;;-0.08;88.22
29239;BME280;16267;48.194;11.546;2022-12-11T01:18:13;95129.66;;;-0.12;87.79
29239;BME280;16267;48.194;11.546;2022-12-11T01:20:41;95128.13;;;-0.13;87.51
29239;BME280;16267;48.194;11.546;2022-12-11T01:23:08;95133.41;;;-0.13;88.15
29239;BME280;16267;48.194;11.546;2022-12-11T01:25:35;95132.66;;;-0.13;88.05
29239;BME280;16267;48.194;11.546;2022-12-11T01:28:03;95137.09;;;-0.17;87.37
29239;BME280;16267;48.194;11.546;2022-12-11T01:30:29;95139.38;;;-0.16;88.17
29239;BME280;16267;48.194;11.546;2022-12-11T01:32:55;95149.19;;;-0.16;88.17
29239;BME280;16267;48.194;11.546;2022-12-11T01:35:21;95146.84;;;-0.21;86.67
29239;BME280;16267;48.194;11.546;2022-12-11T01:37:47;95152.81;;;-0.25;87.32
29239;BME280;16267;48.194;11.546;2022-12-11T01:40:18;95157.25;;;-0.29;87.77
29239;BME280;16267;48.194;11.546;2022-12-11T01:42:44;95162.09;;;-0.31;88.11
29239;BME280;16267;48.194;11.546;2022-12-11T01:45:39;95164.41;;;-0.29;88.87
29239;BME280;16267;48.194;11.546;2022-12-11T01:48:23;95162.09;;;-0.31;88.33
29239;BME280;16267;48.194;11.546;2022-12-11T01:50:59;95164.72;;;-0.31;88.41
29239;BME280;16267;48.194;11.546;2022-12-11T01:53:34;95162.94;;;-0.27;89.53
29239;BME280;16267;48.194;11.546;2022-12-11T01:56:02;95161.41;;;-0.28;88.64
29239;BME280;16267;48.194;11.546;2022-12-11T01:58:34;95159.06;;;-0.33;88.73
29239;BME280;16267;48.194;11.546;2022-12-11T02:01:03;95165.53;;;-0.30;89.64
29239;BME280;16267;48.194;11.546;2022-12-11T02:03:29;95162.50;;;-0.29;89.53
29239;BME280;16267;48.194;11.546;2022-12-11T02:05:59;95160.16;;;-0.34;88.66
29239;BME280;16267;48.194;11.546;2022-12-11T02:08:25;95154.88;;;-0.34;89.85
29239;BME280;16267;48.194;11.546;2022-12-11T02:11:11;95159.06;;;-0.33;89.70
29239;BME280;16267;48.194;11.546;2022-12-11T02:13:56;95150.03;;;-0.32;89.49
29239;BME280;16267;48.194;11.546;2022-12-11T02:16:40;95146.63;;;-0.32;90.00
29239;BME280;16267;48.194;11.546;2022-12-11T02:22:26;95146.91;;;-0.37;90.39
29239;BME280;16267;48.194;11.546;2022-12-11T02:30:36;95141.22;;;-0.39;90.24
29239;BME280;16267;48.194;11.546;2022-12-11T02:33:32;95144.63;;;-0.39;90.41
29239;BME280;16267;48.194;11.546;2022-12-11T02:36:00;95139.34;;;-0.39;89.89
29239;BME280;16267;48.194;11.546;2022-12-11T02:38:34;95142.41;;;-0.37;90.72
29239;BME280;16267;48.194;11.546;2022-12-11T02:41:02;95134.56;;;-0.33;91.22
29239;BME280;16267;48.194;11.546;2022-12-11T02:43:30;95136.50;;;-0.30;90.69
29239;BME280;16267;48.194;11.546;2022-12-11T02:45:58;95149.34;;;-0.29;90.32
29239;BME280;16267;48.194;11.546;2022-12-11T02:48:25;95144.81;;;-0.28;89.97
29239;BME280;16267;48.194;11.546;2022-12-11T02:50:55;95145.59;;;-0.28;89.67
29239;BME280;16267;48.194;11.546;2022-12-11T02:53:26;95148.56;;;-0.29;89.42
29239;BME280;16267;48.194;11.546;2022-12-11T02:56:01;95147.88;;;-0.26;89.99
29239;BME280;16267;48.194;11.546;2022-12-11T02:58:32;95153.16;;;-0.26;89.41
29239;BME280;16267;48.194;11.546;2022-12-11T03:00:59;95156.53;;;-0.26;89.56
29239;BME280;16267;48.194;11.546;2022-12-11T03:03:25;95150.94;;;-0.24;90.18
29239;BME280;16267;48.194;11.546;2022-12-11T03:06:02;95149.38;;;-0.25;89.17
29239;BME280;16267;48.194;11.546;2022-12-11T03:08:28;95152.44;;;-0.23;89.43
29239;BME280;16267;48.194;11.546;2022-12-11T03:10:54;95153.16;;;-0.26;88.58
29239;BME280;16267;48.194;11.546;2022-12-11T03:13:23;95146.34;;;-0.27;88.91
29239;BME280;16267;48.194;11.546;2022-12-11T03:19:36;95155.03;;;-0.27;88.76
29239;BME280;16267;48.194;11.546;2022-12-11T03:22:47;95152.38;;;-0.27;88.05
29239;BME280;16267;48.194;11.546;2022-12-11T03:25:33;95160.25;;;-0.30;87.30
29239;BME280;16267;48.194;11.546;2022-12-11T03:28:18;95159.41;;;-0.34;86.66
29239;BME280;16267;48.194;11.546;2022-12-11T03:30:48;95161.28;;;-0.35;87.08
29239;BME280;16267;48.194;11.546;2022-12-11T03:33:30;95164.63;;;-0.38;87.07
29239;BME280;16267;48.194;11.546;2022-12-11T03:36:05;95164.25;;;-0.36;87.70
29239;BME280;16267;48.194;11.546;2022-12-11T03:38:50;95166.13;;;-0.37;87.20
29239;BME280;16267;48.194;11.546;2022-12-11T03:41:20;95167.94;;;-0.41;86.89
29239;BME280;16267;48.194;11.546;2022-12-11T03:43:48;95178.06;;;-0.43;87.00
29239;BME280;16267;48.194;11.546;2022-12-11T03:46:17;95170.94;;;-0.42;86.96
29239;BME280;16267;48.194;11.546;2022-12-11T03:48:45;95160.81;;;-0.40;87.55
29239;BME280;16267;48.194;11.546;2022-12-11T03:51:12;95170.97;;;-0.39;87.53
29239;BME280;16267;48.194;11.546;2022-12-11T03:53:39;95169.13;;;-0.38;87.88
29239;BME280;16267;48.194;11.546;2022-12-11T03:56:07;95166.50;;;-0.38;87.34
29239;BME280;16267;48.194;11.546;2022-12-11T03:58:34;95166.13;;;-0.37;87.47
29239;BME280;16267;48.194;11.546;2022-12-11T04:01:00;95164.94;;;-0.39;86.38
29239;BME280;16267;48.194;11.546;2022-12-11T04:03:25;95171.69;;;-0.42;85.54
29239;BME280;16267;48.194;11.546;2022-12-11T04:05:54;95168.56;;;-0.48;85.75
29239;BME280;16267;48.194;11.546;2022-12-11T04:08:22;95172.75;;;-0.47;86.56
29239;BME280;16267;48.194;11.546;2022-12-11T04:10:49;95167.47;;;-0.47;86.60
29239;BME280;16267;48.194;11.546;2022-12-11T04:13:39;95176.91;;;-0.46;86.58
29239;BME280;16267;48.194;11.546;2022-12-11T04:16:06;95171.63;;;-0.46;86.67
29239;BME280;16267;48.194;11.546;2022-12-11T04:18:32;95172.00;;;-0.47;86.31
29239;BME280;16267;48.194;11.546;2022-12-11T04:21:17;95160.31;;;-0.46;86.34
29239;BME280;16267;48.194;11.546;2022-12-11T04:24:11;95156.94;;;-0.47;86.28
29239;BME280;16267;48.194;11.546;2022-12-11T04:26:44;95167.75;;;-0.52;84.48
29239;BME280;16267;48.194;11.546;2022-12-11T04:29:10;95171.56;;;-0.49;85.43
29239;BME280;16267;48.194;11.546;2022-12-11T04:31:36;95163.56;;;-0.53;84.20
29239;BME280;16267;48.194;11.546;2022-12-11T04:34:02;95168.78;;;-0.56;83.82
29239;BME280;16267;48.194;11.546;2022-12-11T04:36:28;95163.19;;;-0.55;84.80
29239;BME280;16267;48.194;11.546;2022-12-11T04:38:54;95168.44;;;-0.55;84.05
29239;BME280;16267;48.194;11.546;2022-12-11T04:41:21;95162.34;;;-0.59;83.62
29239;BME280;16267;48.194;11.546;2022-12-11T04:43:46;95160.41;;;-0.62;83.64
29239;BME280;16267;48.194;11.546;2022-12-11T04:46:17;95161.50;;;-0.63;83.47
29239;BME280;16267;48.194;11.546;2022-12-11T04:48:44;95153.19;;;-0.65;83.22
29239;BME280;16267;48.194;11.546;2022-12-11T04:51:10;95150.56;;;-0.65;83.18
29239;BME280;16267;48.194;11.546;2022-12-11T04:53:37;95154.69;;;-0.64;83.25
29239;BME280;16267;48.194;11.546;2022-12-11T04:56:08;95150.91;;;-0.66;82.91
29239;BME280;16267;48.194;11.546;2022-12-11T04:58:35;95163.66;;;-0.69;82.55
29239;BME280;16267;48.194;11.546;2022-12-11T05:01:18;95162.13;;;-0.70;82.28
29239;BME280;16267;48.194;11.546;2022-12-11T05:03:44;95152.69;;;-0.71;82.58
29239;BME280;16267;48.194;11.546;2022-12-11T05:06:11;95151.94;;;-0.71;82.69
29239;BME280;16267;48.194;11.546;2022-12-11T05:08:40;95148.47;;;-0.75;81.89
29239;BME280;16267;48.194;11.546;2022-12-11T05:11:09;95145.75;;;-0.79;81.21
29239;BME280;16267;48.194;11.546;2022-12-11T05:13:36;95150.28;;;-0.79;81.54
29239;BME280;16267;48.194;11.546;2022-12-11T05:16:07;95147.97;;;-0.81;81.28
29239;BME280;16267;48.194;11.546;2022-12-11T05:18:34;95141.53;;;-0.83;81.72
29239;BME280;16267;48.194;11.546;2022-12-11T05:21:06;95147.91;;;-0.84;81.39
29239;BME280;16267;48.194;11.546;2022-12-11T05:23:33;95145.72;;;-0.82;81.88
29239;BME280;16267;48.194;11.546;2022-12-11T05:26:03;95144.09;;;-0.87;80.83
29239;BME280;16267;48.194;11.546;2022-12-11T05:28:32;95141.47;;;-0.87;81.46
29239;BME280;16267;48.194;11.546;2022-12-11T05:31:02;95137.72;;;-0.86;81.11
29239;BME280;16267;48.194;11.546;2022-12-11T05:33:29;95139.25;;;-0.85;81.61
29239;BME280;16267;48.194;11.546;2022-12-11T05:35:55;95134.00;;;-0.85;81.94
29239;BME280;16267;48.194;11.546;2022-12-11T05:38:22;95134.41;;;-0.83;82.37
29239;BME280;16267;48.194;11.546;2022-12-11T05:41:14;95143.06;;;-0.82;82.20
29239;BME280;16267;48.194;11.546;2022-12-11T05:43:40;95141.94;;;-0.81;82.31
29239;BME280;16267;48.194;11.546;2022-12-11T05:46:11;95145.34;;;-0.81;82.43
29239;BME280;16267;48.194;11.546;2022-12-11T05:48:38;95149.16;;;-0.78;82.66
29239;BME280;16267;48.194;11.546;2022-12-11T05:51:06;95142.38;;;-0.79;82.63
29239;BME280;16267;48.194;11.546;2022-12-11T05:53:37;95140.06;;;-0.81;82.28
29239;BME280;16267;48.194;11.546;2022-12-11T05:56:15;95145.72;;;-0.82;81.46
29239;BME280;16267;48.194;11.546;2022-12-11T05:58:46;95146.47;;;-0.82;82.42
29239;BME280;16267;48.194;11.546;2022-12-11T06:01:23;95137.38;;;-0.84;81.96
29239;BME280;16267;48.194;11.546;2022-12-11T06:03:50;95148.25;;;-0.86;81.13
29239;BME280;16267;48.194;11.546;2022-12-11T06:06:17;95142.22;;;-0.86;81.65
29239;BME280;16267;48.194;11.546;2022-12-11T06:08:43;95150.56;;;-0.84;82.28
29239;BME280;16267;48.194;11.546;2022-12-11T06:11:11;95140.78;;;-0.84;82.27
29239;BME280;16267;48.194;11.546;2022-12-11T06:13:38;95139.25;;;-0.85;82.38
29239;BME280;16267;48.194;11.546;2022-12-11T06:16:06;95136.94;;;-0.86;81.73
29239;BME280;16267;48.194;11.546;2022-12-11T06:18:41;95130.94;;;-0.87;81.80
29239;BME280;16267;48.194;11.546;2022-12-11T06:21:15;95134.31;;;-0.86;81.79
29239;BME280;16267;48.194;11.546;2022-12-11T06:23:42;95135.00;;;-0.90;81.21
29239;BME280;16267;48.194;11.546;2022-12-11T06:26:09;95130.94;;;-0.87;82.37
29239;BME280;16267;48.194;11.546;2022-12-11T06:28:35;95129.75;;;-0.90;82.07
29239;BME280;16267;48.194;11.546;2022-12-11T06:31:02;95134.25;;;-0.90;81.92
29239;BME280;16267;48.194;11.546;2022-12-11T06:33:28;95135.38;;;-0.91;81.46
29239;BME280;16267;48.194;11.546;2022-12-11T06:35:54;95132.31;;;-0.93;82.14
29239;BME280;16267;48.194;11.546;2022-12-11T06:38:20;95137.22;;;-0.92;82.75
29239;BME280;16267;48.194;11.546;2022-12-11T06:40:54;95131.47;;;-0.97;81.81
29239;BME280;16267;48.194;11.546;2022-12-11T06:43:21;95136.06;;;-0.94;83.51
29239;BME280;16267;48.194;11.546;2022-12-11T06:45:46;95136.06;;;-0.94;83.41
29239;BME280;16267;48.194;11.546;2022-12-11T06:48:12;95136.41;;;-0.96;82.63
29239;BME280;16267;48.194;11.546;2022-12-11T06:50:38;95140.91;;;-0.96;83.07
29239;BME280;16267;48.194;11.546;2022-12-11T06:53:04;95136.72;;;-0.97;83.13
29239;BME280;16267;48.194;11.546;2022-12-11T06:55:30;95133.78;;;-0.96;84.16
29239;BME280;16267;48.194;11.546;2022-12-11T06:57:55;95142.09;;;-0.94;84.54
29239;BME280;16267;48.194;11.546;2022-12-11T07:00:21;95130.81;;;-0.94;84.28
29239;BME280;16267;48.194;11.546;2022-12-11T07:02:49;95136.47;;;-0.92;84.42
29239;BME280;16267;48.194;11.546;2022-12-11T07:05:15;95132.38;;;-0.90;84.64
29239;BME280;16267;48.194;11.546;2022-12-11T07:07:41;95135.38;;;-0.91;84.35
29239;BME280;16267;48.194;11.546;2022-12-11T07:10:08;95136.91;;;-0.90;84.75
29239;BME280;16267;48.194;11.546;2022-12-11T07:12:34;95137.66;;;-0.90;85.01
29239;BME280;16267;48.194;11.546;2022-12-11T07:15:01;95144.09;;;-0.87;85.07
29239;BME280;16267;48.194;11.546;2022-12-11T07:17:28;95146.41;;;-0.85;84.99
29239;BME280;16267;48.194;11.546;2022-12-11T07:20:09;95147.16;;;-0.85;85.06
29239;BME280;16267;48.194;11.546;2022-12-11T07:22:34;95149.78;;;-0.85;84.81
29239;BME280;16267;48.194;11.546;2022-12-11T07:25:01;95153.94;;;-0.84;85.23
29239;BME280;16267;48.194;11.546;2022-12-11T07:27:26;95156.94;;;-0.85;84.91
29239;BME280;16267;48.194;11.546;2022-12-11T07:30:21;95152.75;;;-0.86;84.51
29239;BME280;16267;48.194;11.546;2022-12-11T07:32:47;95162.22;;;-0.85;84.78
29239;BME280;16267;48.194;11.546;2022-12-11T07:35:15;95159.22;;;-0.84;85.37
29239;BME280;16267;48.194;11.546;2022-12-11T07:37:41;95162.53;;;-0.87;84.39
29239;BME280;16267;48.194;11.546;2022-12-11T07:40:07;95159.47;;;-0.89;84.81
29239;BME280;16267;48.194;11.546;2022-12-11T07:42:34;95159.47;;;-0.89;85.62
29239;BME280;16267;48.194;11.546;2022-12-11T07:45:00;95162.13;;;-0.89;85.25
29239;BME280;16267;48.194;11.546;2022-12-11T07:47:25;95162.91;;;-0.88;85.13
29239;BME280;16267;48.194;11.546;2022-12-11T07:49:51;95161.84;;;-0.84;86.60
29239;BME280;16267;48.194;11.546;2022-12-11T07:52:17;95157.00;;;-0.82;86.19
29239;BME280;16267;48.194;11.546;2022-12-11T07:54:43;95156.31;;;-0.79;86.47
29239;BME280;16267;48.194;11.546;2022-12-11T07:57:08;95161.16;;;-0.81;84.83
29239;BME280;16267;48.194;11.546;2022-12-11T07:59:34;95157.81;;;-0.78;86.16
29239;BME280;16267;48.194;11.546;2022-12-11T08:02:00;95151.53;;;-0.73;86.32
29239;BME280;16267;48.194;11.546;2022-12-11T08:04:25;95161.72;;;-0.72;86.11
29239;BME280;16267;48.194;11.546;2022-12-11T08:06:51;95162.91;;;-0.69;86.03
29239;BME280;16267;48.194;11.546;2022-12-11T08:09:17;95158.03;;;-0.67;85.87
29239;BME280;16267;48.194;11.546;2022-12-11T08:11:51;95161.03;;;-0.69;85.11
29239;BME280;16267;48.194;11.546;2022-12-11T08:14:18;95162.13;;;-0.70;85.08
29239;BME280;16267;48.194;11.546;2022-12-11T08:16:44;95164.09;;;-0.66;85.64
29239;BME280;16267;48.194;11.546;2022-12-11T08:19:13;95167.47;;;-0.66;84.94
29239;BME280;16267;48.194;11.546;2022-12-11T08:21:39;95164.91;;;-0.62;85.90
29239;BME280;16267;48.194;11.546;2022-12-11T08:24:05;95172.06;;;-0.63;85.07
29239;BME280;16267;48.194;11.546;2022-12-11T08:26:31;95175.13;;;-0.61;85.31
29239;BME280;16267;48.194;11.546;2022-12-11T08:28:58;95170.59;;;-0.60;84.59
29239;BME280;16267;48.194;11.546;2022-12-11T08:31:24;95168.56;;;-0.67;83.83
29239;BME280;16267;48.194;11.546;2022-12-11T08:33:51;95174.63;;;-0.66;84.86
29239;BME280;16267;48.194;11.546;2022-12-11T08:36:20;95186.31;;;-0.64;85.50
29239;BME280;16267;48.194;11.546;2022-12-11T08:38:47;95189.06;;;-0.60;85.34
29239;BME280;16267;48.194;11.546;2022-12-11T08:41:20;95180.56;;;-0.70;84.03
29239;BME280;16267;48.194;11.546;2022-12-11T08:43:46;95179.53;;;-0.65;85.10
29239;BME280;16267;48.194;11.546;2022-12-11T08:46:14;95182.59;;;-0.63;85.04
29239;BME280;16267;48.194;11.546;2022-12-11T08:48:43;95186.06;;;-0.59;86.02
29239;BME280;16267;48.194;11.546;2022-12-11T08:51:14;95185.25;;;-0.63;84.13
29239;BME280;16267;48.194;11.546;2022-12-11T08:53:40;95192.50;;;-0.76;84.25
29239;BME280;16267;48.194;11.546;2022-12-11T08:56:12;95190.28;;;-0.74;84.14
29239;BME280;16267;48.194;11.546;2022-12-11T08:58:39;95188.56;;;-0.66;85.39
29239;BME280;16267;48.194;11.546;2022-12-11T09:01:11;95193.16;;;-0.63;84.64
29239;BME280;16267;48.194;11.546;2022-12-11T09:03:39;95182.66;;;-0.59;84.80
29239;BME280;16267;48.194;11.546;2022-12-11T09:06:08;95195.19;;;-0.53;85.21
29239;BME280;16267;48.194;11.546;2022-12-11T09:08:34;95186.63;;;-0.50;84.94
29239;BME280;16267;48.194;11.546;2022-12-11T09:11:10;95188.19;;;-0.45;84.97
29239;BME280;16267;48.194;11.546;2022-12-11T09:13:37;95186.41;;;-0.41;84.44
29239;BME280;16267;48.194;11.546;2022-12-11T09:16:05;95192.50;;;-0.37;84.89
29239;BME280;16267;48.194;11.546;2022-12-11T09:18:32;95179.97;;;-0.43;82.63
29239;BME280;16267;48.194;11.546;2022-12-11T09:21:04;95189.38;;;-0.42;83.25
29239;BME280;16267;48.194;11.546;2022-12-11T09:23:30;95190.50;;;-0.43;82.68
29239;BME280;16267;48.194;11.546;2022-12-11T09:25:56;95181.75;;;-0.48;82.50
29239;BME280;16267;48.194;11.546;2022-12-11T09:28:22;95179.53;;;-0.46;83.16
29239;BME280;16267;48.194;11.546;2022-12-11T09:30:49;95184.31;;;-0.51;81.75
29239;BME280;16267;48.194;11.546;2022-12-11T09:33:15;95185.56;;;-0.45;83.52
29239;BME280;16267;48.194;11.546;2022-12-11T09:35:41;95181.03;;;-0.45;82.10
29239;BME280;16267;48.194;11.546;2022-12-11T09:38:08;95177.31;;;-0.43;82.53
29239;BME280;16267;48.194;11.546;2022-12-11T09:40:41;95172.81;;;-0.43;82.04
29239;BME280;16267;48.194;11.546;2022-12-11T09:43:41;95177.03;;;-0.38;82.18
29239;BME280;16267;48.194;11.546;2022-12-11T09:46:15;95178.03;;;-0.47;80.54
29239;BME280;16267;48.194;11.546;2022-12-11T09:48:45;95164.91;;;-0.43;81.86
29239;BME280;16267;48.194;11.546;2022-12-11T09:54:01;95160.81;;;-0.40;80.11
29239;BME280;16267;48.194;11.546;2022-12-11T10:17:30;95157.75;;;-0.42;79.84
29239;BME280;16267;48.194;11.546;2022-12-11T10:22:34;95145.94;;;-0.29;80.80
29239;BME280;16267;48.194;11.546;2022-12-11T10:25:05;95142.25;;;-0.25;80.21
29239;BME280;16267;48.194;11.546;2022-12-11T10:27:36;95142.72;;;-0.19;79.12
29239;BME280;16267;48.194;11.546;2022-12-11T10:30:29;95139.03;;;-0.14;77.37
29239;BME280;16267;48.194;11.546;2022-12-11T10:38:29;95137.16;;;-0.14;76.73
29239;BME280;16267;48.194;11.546;2022-12-11T10:41:04;95132.41;;;-0.05;77.68
29239;BME280;16267;48.194;11.546;2022-12-11T10:43:51;95126.00;;;-0.04;77.35
29239;BME280;16267;48.194;11.546;2022-12-11T10:46:24;95123.44;;;-0.23;75.23
29239;BME280;16267;48.194;11.546;2022-12-11T10:49:01;95133.28;;;0.26;73.84
29239;BME280;16267;48.194;11.546;2022-12-11T10:54:15;95119.69;;;0.51;74.96
29239;BME280;16267;48.194;11.546;2022-12-11T10:56:46;95119.50;;;0.66;74.47
29239;BME280;16267;48.194;11.546;2022-12-11T10:59:45;95112.56;;;0.55;74.93
29239;BME280;16267;48.194;11.546;2022-12-11T11:02:43;95112.88;;;0.50;73.37
29239;BME280;16267;48.194;11.546;2022-12-11T11:05:14;95104.44;;;0.40;74.11
29239;BME280;16267;48.194;11.546;2022-12-11T11:07:41;95109.22;;;0.31;72.91
29239;BME280;16267;48.194;11.546;2022-12-11T11:10:17;95097.13;;;0.30;73.55
29239;BME280;16267;48.194;11.546;2022-12-11T11:12:48;95095.63;;;0.29;74.13
29239;BME280;16267;48.194;11.546;2022-12-11T11:15:33;95097.13;;;0.30;74.58
29239;BME280;16267;48.194;11.546;2022-12-11T11:18:18;95097.84;;;0.27;74.44
29239;BME280;16267;48.194;11.546;2022-12-11T11:20:47;95093.66;;;0.22;74.27
29239;BME280;16267;48.194;11.546;2022-12-11T11:23:14;95081.63;;;0.02;74.04
29239;BME280;16267;48.194;11.546;2022-12-11T11:25:57;95085.81;;;0.03;74.93
29239;BME280;16267;48.194;11.546;2022-12-11T11:28:33;95079.47;;;0.08;76.00
29239;BME280;16267;48.194;11.546;2022-12-11T11:31:21;95070.38;;;0.05;74.89
29239;BME280;16267;48.194;11.546;2022-12-11T11:34:05;95068.84;;;0.04;74.51
29239;BME280;16267;48.194;11.546;2022-12-11T11:36:34;95073.00;;;0.05;73.92
29239;BME280;16267;48.194;11.546;2022-12-11T11:39:28;95070.38;;;0.05;74.82
29239;BME280;16267;48.194;11.546;2022-12-11T11:42:22;95063.16;;;0.02;74.86
29239;BME280;16267;48.194;11.546;2022-12-11T11:45:21;95065.81;;;0.02;74.67
29239;BME280;16267;48.194;11.546;2022-12-11T11:50:45;95055.63;;;0.01;73.45
29239;BME280;16267;48.194;11.546;2022-12-11T11:53:32;95061.28;;;0.03;75.12
29239;BME280;16267;48.194;11.546;2022-12-11T11:56:22;95052.22;;;0.00;73.85
29239;BME280;16267;48.194;11.546;2022-12-11T11:59:20;95053.69;;;-0.03;73.40
29239;BME280;16267;48.194;11.546;2022-12-11T12:01:53;95052.97;;;0.01;74.70
29239;BME280;16267;48.194;11.546;2022-12-11T12:04:20;95047.50;;;-0.14;72.48
29239;BME280;16267;48.194;11.546;2022-12-11T12:13:12;95047.25;;;-0.05;74.19
29239;BME280;16267;48.194;11.546;2022-12-11T12:15:50;95041.13;;;-0.09;73.52
29239;BME280;16267;48.194;11.546;2022-12-11T12:18:37;95041.97;;;-0.05;73.87
29239;BME280;16267;48.194;11.546;2022-12-11T12:21:36;95041.25;;;-0.02;74.33
29239;BME280;16267;48.194;11.546;2022-12-11T12:27:19;95040.03;;;-0.08;73.47
29239;BME280;16267;48.194;11.546;2022-12-11T12:30:06;95035.88;;;-0.09;73.89
29239;BME280;16267;48.194;11.546;2022-12-11T12:33:14;95044.84;;;-0.14;73.57
29239;BME280;16267;48.194;11.546;2022-12-11T12:36:19;95042.16;;;-0.40;73.03
29239;BME280;16267;48.194;11.546;2022-12-11T12:39:04;95041.97;;;-0.28;74.68
29239;BME280;16267;48.194;11.546;2022-12-11T12:45:08;95040.69;;;-0.15;73.51
29239;BME280;16267;48.194;11.546;2022-12-11T12:47:27;95037.41;;;-0.08;74.66
29239;BME280;16267;48.194;11.546;2022-12-11T12:49:58;95031.41;;;-0.05;74.67
29239;BME280;16267;48.194;11.546;2022-12-11T12:52:34;95034.66;;;-0.15;73.38
29239;BME280;16267;48.194;11.546;2022-12-11T12:55:25;95032.47;;;-0.10;73.24
29239;BME280;16267;48.194;11.546;2022-12-11T12:58:06;95026.38;;;-0.14;73.69
29239;BME280;16267;48.194;11.546;2022-12-11T13:00:34;95035.00;;;-0.17;73.35
29239;BME280;16267;48.194;11.546;2022-12-11T13:03:24;95038.03;;;-0.15;73.94
29239;BME280;16267;48.194;11.546;2022-12-11T13:06:05;95039.22;;;-0.12;73.51
29239;BME280;16267;48.194;11.546;2022-12-11T13:08:47;95032.81;;;-0.11;74.25
29239;BME280;16267;48.194;11.546;2022-12-11T13:11:18;95027.25;;;-0.06;75.26
29239;BME280;16267;48.194;11.546;2022-12-11T13:14:04;95037.50;;;-0.01;74.85
29239;BME280;16267;48.194;11.546;2022-12-11T13:16:39;95028.53;;;0.04;74.41
29239;BME280;16267;48.194;11.546;2022-12-11T13:27:43;95037.28;;;-0.15;72.00
29239;BME280;16267;48.194;11.546;2022-12-11T13:33:04;95040.22;;;-0.20;71.10
29239;BME280;16267;48.194;11.546;2022-12-11T13:35:32;95039.66;;;-0.33;70.67
29239;BME280;16267;48.194;11.546;2022-12-11T13:38:07;95037.41;;;-0.31;71.03
29239;BME280;16267;48.194;11.546;2022-12-11T13:40:41;95037.88;;;-0.26;71.48
29239;BME280;16267;48.194;11.546;2022-12-11T13:43:26;95041.34;;;-0.21;72.45
29239;BME280;16267;48.194;11.546;2022-12-11T13:46:08;95041.16;;;-0.32;70.73
29239;BME280;16267;48.194;11.546;2022-12-11T13:49:03;95041.59;;;-0.30;71.00
29239;BME280;16267;48.194;11.546;2022-12-11T13:51:31;95036.78;;;-0.25;72.86
29239;BME280;16267;48.194;11.546;2022-12-11T13:54:17;95042.03;;;-0.25;72.57
29239;BME280;16267;48.194;11.546;2022-12-11T13:57:01;95036.88;;;-0.17;73.62
29239;BME280;16267;48.194;11.546;2022-12-11T13:59:35;95035.06;;;-0.13;73.16
29239;BME280;16267;48.194;11.546;2022-12-11T14:02:24;95035.91;;;-0.06;73.73
29239;BME280;16267;48.194;11.546;2022-12-11T14:04:59;95037.88;;;-0.03;73.71
29239;BME280;16267;48.194;11.546;2022-12-11T14:07:37;95035.63;;;-0.01;74.16
29239;BME280;16267;48.194;11.546;2022-12-11T14:10:20;95040.53;;;0.01;72.82
29239;BME280;16267;48.194;11.546;2022-12-11T14:15:25;95040.78;;;-0.08;71.09
29239;BME280;16267;48.194;11.546;2022-12-11T14:17:52;95049.81;;;-0.09;72.06
29239;BME280;16267;48.194;11.546;2022-12-11T14:20:33;95035.09;;;-0.10;71.80
29239;BME280;16267;48.194;11.546;2022-12-11T14:23:25;95031.13;;;-0.23;70.19
29239;BME280;16267;48.194;11.546;2022-12-11T14:26:17;95047.78;;;-0.19;71.78
29239;BME280;16267;48.194;11.546;2022-12-11T14:28:44;95040.91;;;-0.24;70.93
29239;BME280;16267;48.194;11.546;2022-12-11T14:31:18;95048.03;;;-0.28;70.83
29239;BME280;16267;48.194;11.546;2022-12-11T14:33:52;95045.44;;;-0.24;72.15
29239;BME280;16267;48.194;11.546;2022-12-11T14:36:21;95047.72;;;-0.23;72.38